sensor_id;sensor_type;location;lat;lon;timestamp;pressure;altitude;pressure_sealevel;temperature;humidity
77590;BME280;66746;51.328;12.332;2023-07-24T00:00:20;99529.91;;;20.72;61.38
77590;BME280;66746;51.328;12.332;2023-07-24T00:02:47;99521.78;;;20.71;61.40
77590;BME280;66746;51.328;12.332;2023-07-24T00:05:14;99529.00;;;20.72;61.08
77590;BME280;66746;51.328;12.332;2023-07-24T00:07:41;99519.03;;;20.71;60.89
77590;BME280;66746;51.328;12.332;2023-07-24T00:10:09;99517.25;;;20.70;61.67
77590;BME280;66746;51.328;12.332;2023-07-24T00:12:35;99518.44;;;20.67;61.74
77590;BME280;66746;51.328;12.332;2023-07-24T00:15:02;99515.94;;;20.64;62.38
77590;BME280;66746;51.328;12.332;2023-07-24T00:17:29;99507.25;;;20.59;61.55
77590;BME280;66746;51.328;12.332;2023-07-24T00:19:56;99495.66;;;20.56;62.30
77590;BME280;66746;51.328;12.332;2023-07-24T00:22:22;99510.16;;;20.58;62.39
77590;BME280;66746;51.328;12.332;2023-07-24T00:24:49;99503.19;;;20.54;62.06
77590;BME280;66746;51.328;12.332;2023-07-24T00:27:17;99503.19;;;20.54;62.51
77590;BME280;66746;51.328;12.332;2023-07-24T00:29:44;99488.94;;;20.49;62.66
77590;BME280;66746;51.328;12.332;2023-07-24T00:32:11;99502.41;;;20.42;63.01
77590;BME280;66746;51.328;12.332;2023-07-24T00:34:38;99495.31;;;20.40;62.96
77590;BME280;66746;51.328;12.332;2023-07-24T00:37:05;99492.97;;;20.35;63.25
77590;BME280;66746;51.328;12.332;2023-07-24T00:39:31;99487.47;;;20.35;63.01
77590;BME280;66746;51.328;12.332;2023-07-24T00:41:58;99491.81;;;20.38;63.41
77590;BME280;66746;51.328;12.332;2023-07-24T00:44:26;99488.34;;;20.36;63.16
77590;BME280;66746;51.328;12.332;2023-07-24T00:46:53;99495.56;;;20.37;62.70
77590;BME280;66746;51.328;12.332;2023-07-24T00:49:20;99486.03;;;20.41;63.10
77590;BME280;66746;51.328;12.332;2023-07-24T00:51:47;99483.25;;;20.41;63.78
77590;BME280;66746;51.328;12.332;2023-07-24T00:54:16;99486.31;;;20.38;63.62
77590;BME280;66746;51.328;12.332;2023-07-24T00:56:44;99474.56;;;20.36;63.66
77590;BME280;66746;51.328;12.332;2023-07-24T00:59:11;99480.81;;;20.38;63.51
77590;BME280;66746;51.328;12.332;2023-07-24T01:01:39;99475.31;;;20.38;63.52
77590;BME280;66746;51.328;12.332;2023-07-24T01:04:08;99471.53;;;20.39;63.21
77590;BME280;66746;51.328;12.332;2023-07-24T01:06:34;99466.59;;;20.42;62.55
77590;BME280;66746;51.328;12.332;2023-07-24T01:09:02;99456.31;;;20.44;62.63
77590;BME280;66746;51.328;12.332;2023-07-24T01:11:33;99463.16;;;20.50;62.35
77590;BME280;66746;51.328;12.332;2023-07-24T01:14:07;99465.19;;;20.48;63.00
77590;BME280;66746;51.328;12.332;2023-07-24T01:16:37;99465.28;;;20.46;62.95
77590;BME280;66746;51.328;12.332;2023-07-24T01:19:12;99463.41;;;20.47;63.48
77590;BME280;66746;51.328;12.332;2023-07-24T01:21:45;99466.59;;;20.42;63.30
77590;BME280;66746;51.328;12.332;2023-07-24T01:24:23;99458.47;;;20.41;63.34
77590;BME280;66746;51.328;12.332;2023-07-24T01:26:52;99458.78;;;20.38;63.78
77590;BME280;66746;51.328;12.332;2023-07-24T01:29:19;99464.53;;;20.35;63.40
77590;BME280;66746;51.328;12.332;2023-07-24T01:31:45;99457.56;;;20.31;63.36
77590;BME280;66746;51.328;12.332;2023-07-24T01:34:12;99465.84;;;20.31;64.23
77590;BME280;66746;51.328;12.332;2023-07-24T01:36:39;99462.50;;;20.27;63.74
77590;BME280;66746;51.328;12.332;2023-07-24T01:39:06;99453.66;;;20.23;64.74
77590;BME280;66746;51.328;12.332;2023-07-24T01:41:34;99451.19;;;20.20;64.74
77590;BME280;66746;51.328;12.332;2023-07-24T01:44:02;99456.94;;;20.17;64.43
77590;BME280;66746;51.328;12.332;2023-07-24T01:46:28;99458.97;;;20.15;64.00
77590;BME280;66746;51.328;12.332;2023-07-24T01:48:56;99452.72;;;20.13;64.70
77590;BME280;66746;51.328;12.332;2023-07-24T01:51:22;99451.97;;;20.11;65.19
77590;BME280;66746;51.328;12.332;2023-07-24T01:53:49;99445.91;;;20.08;65.04
77590;BME280;66746;51.328;12.332;2023-07-24T01:56:16;99446.03;;;20.06;65.56
77590;BME280;66746;51.328;12.332;2023-07-24T01:58:42;99446.44;;;20.02;64.91
77590;BME280;66746;51.328;12.332;2023-07-24T02:01:10;99445.56;;;20.01;64.84
77590;BME280;66746;51.328;12.332;2023-07-24T02:03:37;99435.84;;;19.97;64.88
77590;BME280;66746;51.328;12.332;2023-07-24T02:08:37;99444.97;;;19.98;64.55
77590;BME280;66746;51.328;12.332;2023-07-24T02:11:03;99450.50;;;19.98;65.16
77590;BME280;66746;51.328;12.332;2023-07-24T02:13:30;99444.41;;;19.94;64.60
77590;BME280;66746;51.328;12.332;2023-07-24T02:15:56;99440.63;;;19.95;65.17
77590;BME280;66746;51.328;12.332;2023-07-24T02:18:24;99449.03;;;19.94;65.35
77590;BME280;66746;51.328;12.332;2023-07-24T02:20:51;99448.44;;;19.90;65.08
77590;BME280;66746;51.328;12.332;2023-07-24T02:23:18;99451.19;;;19.90;64.70
77590;BME280;66746;51.328;12.332;2023-07-24T02:25:44;99453.06;;;19.90;63.96
77590;BME280;66746;51.328;12.332;2023-07-24T02:28:11;99452.91;;;19.91;64.66
77590;BME280;66746;51.328;12.332;2023-07-24T02:30:38;99443.47;;;19.84;64.40
77590;BME280;66746;51.328;12.332;2023-07-24T02:33:04;99445.25;;;19.85;64.82
77590;BME280;66746;51.328;12.332;2023-07-24T02:35:38;99431.00;;;19.80;63.63
77590;BME280;66746;51.328;12.332;2023-07-24T02:38:06;99434.50;;;19.82;64.75
77590;BME280;66746;51.328;12.332;2023-07-24T02:40:33;99431.75;;;19.82;63.49
77590;BME280;66746;51.328;12.332;2023-07-24T02:42:59;99436.25;;;19.83;63.59
77590;BME280;66746;51.328;12.332;2023-07-24T02:45:26;99431.47;;;19.85;63.67
77590;BME280;66746;51.328;12.332;2023-07-24T02:47:53;99425.25;;;19.83;64.59
77590;BME280;66746;51.328;12.332;2023-07-24T02:50:19;99425.25;;;19.83;63.85
77590;BME280;66746;51.328;12.332;2023-07-24T02:52:47;99419.13;;;19.80;63.70
77590;BME280;66746;51.328;12.332;2023-07-24T02:55:14;99421.03;;;19.79;63.86
77590;BME280;66746;51.328;12.332;2023-07-24T02:57:40;99435.03;;;19.76;63.94
77590;BME280;66746;51.328;12.332;2023-07-24T03:00:08;99420.56;;;19.74;64.32
77590;BME280;66746;51.328;12.332;2023-07-24T03:02:35;99424.31;;;19.73;64.17
77590;BME280;66746;51.328;12.332;2023-07-24T03:05:02;99425.59;;;19.69;64.70
77590;BME280;66746;51.328;12.332;2023-07-24T03:07:28;99422.84;;;19.69;63.69
77590;BME280;66746;51.328;12.332;2023-07-24T03:09:56;99418.38;;;19.78;61.90
77590;BME280;66746;51.328;12.332;2023-07-24T03:12:23;99421.47;;;19.84;62.97
77590;BME280;66746;51.328;12.332;2023-07-24T03:14:49;99431.47;;;19.85;62.03
77590;BME280;66746;51.328;12.332;2023-07-24T03:17:16;99428.63;;;19.96;61.32
77590;BME280;66746;51.328;12.332;2023-07-24T03:19:44;99420.63;;;19.93;62.79
77590;BME280;66746;51.328;12.332;2023-07-24T03:22:11;99426.41;;;19.90;62.18
77590;BME280;66746;51.328;12.332;2023-07-24T03:24:37;99420.19;;;19.88;61.66
77590;BME280;66746;51.328;12.332;2023-07-24T03:27:05;99420.72;;;19.82;61.99
77590;BME280;66746;51.328;12.332;2023-07-24T03:29:32;99416.50;;;19.78;62.58
77590;BME280;66746;51.328;12.332;2023-07-24T03:31:59;99418.28;;;19.79;62.45
77590;BME280;66746;51.328;12.332;2023-07-24T03:34:25;99416.50;;;19.78;62.54
77590;BME280;66746;51.328;12.332;2023-07-24T03:36:52;99405.81;;;19.75;63.12
77590;BME280;66746;51.328;12.332;2023-07-24T03:39:18;99413.03;;;19.76;62.30
77590;BME280;66746;51.328;12.332;2023-07-24T03:41:45;99383.75;;;19.66;62.68
77590;BME280;66746;51.328;12.332;2023-07-24T03:44:13;99406.66;;;19.76;61.80
77590;BME280;66746;51.328;12.332;2023-07-24T03:46:39;99400.16;;;19.77;62.55
77590;BME280;66746;51.328;12.332;2023-07-24T03:49:06;99411.31;;;19.75;61.42
77590;BME280;66746;51.328;12.332;2023-07-24T03:51:32;99409.53;;;19.74;62.34
77590;BME280;66746;51.328;12.332;2023-07-24T03:53:59;99412.28;;;19.74;62.16
77590;BME280;66746;51.328;12.332;2023-07-24T03:56:26;99422.56;;;19.72;62.92
77590;BME280;66746;51.328;12.332;2023-07-24T03:58:52;99413.44;;;19.72;61.98
77590;BME280;66746;51.328;12.332;2023-07-24T04:01:20;99410.69;;;19.72;62.32
77590;BME280;66746;51.328;12.332;2023-07-24T04:03:47;99411.84;;;19.69;61.84
77590;BME280;66746;51.328;12.332;2023-07-24T04:06:14;99412.84;;;19.68;62.29
77590;BME280;66746;51.328;12.332;2023-07-24T04:08:40;99409.25;;;19.68;62.92
77590;BME280;66746;51.328;12.332;2023-07-24T04:11:07;99412.13;;;19.66;63.22
77590;BME280;66746;51.328;12.332;2023-07-24T04:13:34;99409.66;;;19.63;62.82
77590;BME280;66746;51.328;12.332;2023-07-24T04:16:00;99405.13;;;19.62;62.85
77590;BME280;66746;51.328;12.332;2023-07-24T04:18:28;99403.41;;;19.61;63.07
77590;BME280;66746;51.328;12.332;2023-07-24T04:20:55;99399.63;;;19.62;62.59
77590;BME280;66746;51.328;12.332;2023-07-24T04:23:22;99409.66;;;19.63;62.47
77590;BME280;66746;51.328;12.332;2023-07-24T04:25:49;99402.28;;;19.64;63.70
77590;BME280;66746;51.328;12.332;2023-07-24T04:28:16;99397.63;;;19.64;63.41
77590;BME280;66746;51.328;12.332;2023-07-24T04:30:43;99392.13;;;19.64;62.40
77590;BME280;66746;51.328;12.332;2023-07-24T04:33:09;99393.44;;;19.70;62.90
77590;BME280;66746;51.328;12.332;2023-07-24T04:35:37;99406.34;;;19.69;63.47
77590;BME280;66746;51.328;12.332;2023-07-24T04:38:04;99406.06;;;19.72;63.45
77590;BME280;66746;51.328;12.332;2023-07-24T04:40:30;99398.53;;;19.74;64.15
77590;BME280;66746;51.328;12.332;2023-07-24T04:42:57;99396.53;;;19.76;63.21
77590;BME280;66746;51.328;12.332;2023-07-24T04:45:23;99397.25;;;19.78;63.29
77590;BME280;66746;51.328;12.332;2023-07-24T04:47:50;99401.47;;;19.82;62.61
77590;BME280;66746;51.328;12.332;2023-07-24T04:50:16;99392.06;;;19.85;62.94
77590;BME280;66746;51.328;12.332;2023-07-24T04:52:44;99389.91;;;19.88;61.83
77590;BME280;66746;51.328;12.332;2023-07-24T04:55:11;99383.25;;;19.91;62.87
77590;BME280;66746;51.328;12.332;2023-07-24T04:57:37;99380.22;;;19.94;62.22
77590;BME280;66746;51.328;12.332;2023-07-24T05:00:05;99381.53;;;19.99;62.97
77590;BME280;66746;51.328;12.332;2023-07-24T05:02:32;99371.13;;;20.03;61.77
77590;BME280;66746;51.328;12.332;2023-07-24T05:04:58;99371.56;;;20.08;62.88
77590;BME280;66746;51.328;12.332;2023-07-24T05:07:25;99379.53;;;20.11;61.14
77590;BME280;66746;51.328;12.332;2023-07-24T05:09:53;99379.28;;;20.14;61.46
77590;BME280;66746;51.328;12.332;2023-07-24T05:12:19;99368.31;;;20.23;62.12
77590;BME280;66746;51.328;12.332;2023-07-24T05:14:46;99377.59;;;20.32;61.86
77590;BME280;66746;51.328;12.332;2023-07-24T05:17:13;99366.88;;;20.39;60.34
77590;BME280;66746;51.328;12.332;2023-07-24T05:19:39;99372.97;;;20.52;60.03
77590;BME280;66746;51.328;12.332;2023-07-24T05:22:06;99372.09;;;20.61;59.61
77590;BME280;66746;51.328;12.332;2023-07-24T05:24:33;99370.94;;;20.73;60.37
77590;BME280;66746;51.328;12.332;2023-07-24T05:27:01;99370.38;;;20.79;60.74
77590;BME280;66746;51.328;12.332;2023-07-24T05:29:27;99370.94;;;20.82;59.80
77590;BME280;66746;51.328;12.332;2023-07-24T05:31:54;99370.63;;;20.85;59.57
77590;BME280;66746;51.328;12.332;2023-07-24T05:34:20;99377.56;;;20.99;58.81
77590;BME280;66746;51.328;12.332;2023-07-24T05:36:55;99370.34;;;21.17;58.38
77590;BME280;66746;51.328;12.332;2023-07-24T05:39:22;99358.59;;;21.61;58.32
77590;BME280;66746;51.328;12.332;2023-07-24T05:41:48;99367.00;;;22.24;56.13
77590;BME280;66746;51.328;12.332;2023-07-24T05:44:16;99372.84;;;23.26;52.89
77590;BME280;66746;51.328;12.332;2023-07-24T05:46:43;99369.34;;;24.43;50.73
77590;BME280;66746;51.328;12.332;2023-07-24T05:49:09;99369.97;;;25.03;49.83
77590;BME280;66746;51.328;12.332;2023-07-24T05:51:36;99360.03;;;24.60;49.00
77590;BME280;66746;51.328;12.332;2023-07-24T05:54:03;99365.50;;;24.36;47.72
77590;BME280;66746;51.328;12.332;2023-07-24T05:56:29;99365.75;;;24.67;48.42
77590;BME280;66746;51.328;12.332;2023-07-24T05:58:56;99368.69;;;24.49;46.09
77590;BME280;66746;51.328;12.332;2023-07-24T06:01:24;99358.53;;;24.82;45.26
77590;BME280;66746;51.328;12.332;2023-07-24T06:03:51;99347.34;;;24.41;46.84
77590;BME280;66746;51.328;12.332;2023-07-24T06:06:17;99359.56;;;25.53;46.63
77590;BME280;66746;51.328;12.332;2023-07-24T06:08:46;99352.13;;;25.29;44.20
77590;BME280;66746;51.328;12.332;2023-07-24T06:11:13;99349.16;;;25.07;45.92
77590;BME280;66746;51.328;12.332;2023-07-24T06:13:39;99332.31;;;25.49;44.56
77590;BME280;66746;51.328;12.332;2023-07-24T06:16:06;99322.88;;;25.74;44.52
77590;BME280;66746;51.328;12.332;2023-07-24T06:18:34;99314.59;;;25.50;44.29
77590;BME280;66746;51.328;12.332;2023-07-24T06:21:01;99316.56;;;24.93;44.80
77590;BME280;66746;51.328;12.332;2023-07-24T06:23:27;99321.22;;;25.24;44.06
77590;BME280;66746;51.328;12.332;2023-07-24T06:25:54;99324.38;;;24.89;43.30
77590;BME280;66746;51.328;12.332;2023-07-24T06:28:20;99325.06;;;24.99;44.56
77590;BME280;66746;51.328;12.332;2023-07-24T06:30:47;99314.66;;;24.85;45.15
77590;BME280;66746;51.328;12.332;2023-07-24T06:33:13;99317.09;;;24.96;43.92
77590;BME280;66746;51.328;12.332;2023-07-24T06:35:41;99329.59;;;25.00;44.37
77590;BME280;66746;51.328;12.332;2023-07-24T06:38:08;99327.84;;;24.99;43.92
77590;BME280;66746;51.328;12.332;2023-07-24T06:40:34;99316.38;;;25.02;43.92
77590;BME280;66746;51.328;12.332;2023-07-24T06:43:01;99327.13;;;24.73;44.44
77590;BME280;66746;51.328;12.332;2023-07-24T06:45:28;99306.16;;;24.95;45.19
77590;BME280;66746;51.328;12.332;2023-07-24T06:47:54;99311.88;;;24.77;44.74
77590;BME280;66746;51.328;12.332;2023-07-24T06:50:21;99319.19;;;24.78;44.38
77590;BME280;66746;51.328;12.332;2023-07-24T06:52:49;99318.50;;;24.84;44.96
77590;BME280;66746;51.328;12.332;2023-07-24T06:55:15;99317.03;;;24.48;43.91
77590;BME280;66746;51.328;12.332;2023-07-24T06:57:42;99320.31;;;24.51;44.41
77590;BME280;66746;51.328;12.332;2023-07-24T07:00:10;99331.25;;;24.53;44.01
77590;BME280;66746;51.328;12.332;2023-07-24T07:02:36;99329.50;;;24.52;44.47
77590;BME280;66746;51.328;12.332;2023-07-24T07:05:03;99308.03;;;24.62;45.50
77590;BME280;66746;51.328;12.332;2023-07-24T07:07:30;99305.56;;;24.35;46.09
77590;BME280;66746;51.328;12.332;2023-07-24T07:09:58;99315.72;;;24.02;45.65
77590;BME280;66746;51.328;12.332;2023-07-24T07:12:25;99316.16;;;23.90;46.00
77590;BME280;66746;51.328;12.332;2023-07-24T07:14:51;99314.00;;;23.76;46.31
77590;BME280;66746;51.328;12.332;2023-07-24T07:17:18;99319.22;;;23.79;45.91
77590;BME280;66746;51.328;12.332;2023-07-24T07:19:44;99305.72;;;23.84;47.58
77590;BME280;66746;51.328;12.332;2023-07-24T07:22:11;99312.50;;;23.89;47.32
77590;BME280;66746;51.328;12.332;2023-07-24T07:24:38;99298.84;;;23.96;46.54
77590;BME280;66746;51.328;12.332;2023-07-24T07:27:06;99301.03;;;24.10;46.01
77590;BME280;66746;51.328;12.332;2023-07-24T07:29:32;99299.28;;;24.09;46.59
77590;BME280;66746;51.328;12.332;2023-07-24T07:31:59;99290.16;;;24.40;46.83
77590;BME280;66746;51.328;12.332;2023-07-24T07:34:25;99288.94;;;24.35;44.72
77590;BME280;66746;51.328;12.332;2023-07-24T07:36:52;99298.38;;;24.82;45.80
77590;BME280;66746;51.328;12.332;2023-07-24T07:39:18;99282.56;;;24.67;45.01
77590;BME280;66746;51.328;12.332;2023-07-24T07:41:45;99294.84;;;24.48;45.11
77590;BME280;66746;51.328;12.332;2023-07-24T07:44:14;99286.34;;;24.33;45.03
77590;BME280;66746;51.328;12.332;2023-07-24T07:46:40;99284.09;;;24.29;44.52
77590;BME280;66746;51.328;12.332;2023-07-24T07:49:07;99297.41;;;24.17;44.85
77590;BME280;66746;51.328;12.332;2023-07-24T07:51:34;99288.72;;;24.12;46.59
77590;BME280;66746;51.328;12.332;2023-07-24T07:54:00;99288.19;;;24.09;46.11
77590;BME280;66746;51.328;12.332;2023-07-24T07:56:28;99279.53;;;24.04;46.08
77590;BME280;66746;51.328;12.332;2023-07-24T07:58:55;99273.50;;;24.08;46.25
77590;BME280;66746;51.328;12.332;2023-07-24T08:01:23;99265.69;;;24.12;46.16
77590;BME280;66746;51.328;12.332;2023-07-24T08:03:49;99259.63;;;24.16;46.44
77590;BME280;66746;51.328;12.332;2023-07-24T08:06:16;99270.59;;;24.26;47.47
77590;BME280;66746;51.328;12.332;2023-07-24T08:08:47;99273.00;;;24.29;45.14
77590;BME280;66746;51.328;12.332;2023-07-24T08:11:20;99268.16;;;24.39;45.87
77590;BME280;66746;51.328;12.332;2023-07-24T08:13:47;99248.06;;;24.37;46.90
77590;BME280;66746;51.328;12.332;2023-07-24T08:16:16;99251.88;;;24.52;46.40
77590;BME280;66746;51.328;12.332;2023-07-24T08:19:12;99238.88;;;24.44;45.48
77590;BME280;66746;51.328;12.332;2023-07-24T08:21:39;99249.97;;;24.52;44.44
77590;BME280;66746;51.328;12.332;2023-07-24T08:24:33;99246.72;;;24.81;47.37
77590;BME280;66746;51.328;12.332;2023-07-24T08:27:23;99238.03;;;24.60;43.94
77590;BME280;66746;51.328;12.332;2023-07-24T08:29:55;99261.94;;;24.93;45.40
77590;BME280;66746;51.328;12.332;2023-07-24T08:36:36;99222.22;;;25.09;45.78
77590;BME280;66746;51.328;12.332;2023-07-24T08:39:17;99245.56;;;25.30;44.60
77590;BME280;66746;51.328;12.332;2023-07-24T08:41:54;99230.00;;;25.21;43.69
77590;BME280;66746;51.328;12.332;2023-07-24T08:44:38;99257.03;;;25.35;43.37
77590;BME280;66746;51.328;12.332;2023-07-24T08:49:51;99259.38;;;25.63;42.46
77590;BME280;66746;51.328;12.332;2023-07-24T08:52:21;99262.75;;;25.81;40.86
77590;BME280;66746;51.328;12.332;2023-07-24T08:55:01;99255.78;;;25.85;41.62
77590;BME280;66746;51.328;12.332;2023-07-24T08:57:28;99247.88;;;25.74;41.38
77590;BME280;66746;51.328;12.332;2023-07-24T08:59:55;99248.19;;;25.79;41.04
77590;BME280;66746;51.328;12.332;2023-07-24T09:02:22;99261.41;;;26.15;40.20
77590;BME280;66746;51.328;12.332;2023-07-24T09:04:49;99246.16;;;26.34;40.37
77590;BME280;66746;51.328;12.332;2023-07-24T09:07:15;99251.66;;;26.65;39.58
77590;BME280;66746;51.328;12.332;2023-07-24T09:09:43;99257.16;;;26.27;40.61
77590;BME280;66746;51.328;12.332;2023-07-24T09:12:15;99248.06;;;26.11;40.86
77590;BME280;66746;51.328;12.332;2023-07-24T09:14:41;99238.06;;;26.24;41.08
77590;BME280;66746;51.328;12.332;2023-07-24T09:17:09;99236.16;;;26.25;40.51
77590;BME280;66746;51.328;12.332;2023-07-24T09:19:37;99233.47;;;26.32;39.77
77590;BME280;66746;51.328;12.332;2023-07-24T09:22:08;99232.63;;;26.31;41.16
77590;BME280;66746;51.328;12.332;2023-07-24T09:24:34;99224.69;;;26.20;40.73
77590;BME280;66746;51.328;12.332;2023-07-24T09:27:05;99221.88;;;25.97;40.91
77590;BME280;66746;51.328;12.332;2023-07-24T09:29:32;99230.75;;;25.93;40.97
77590;BME280;66746;51.328;12.332;2023-07-24T09:31:59;99232.16;;;25.89;42.09
77590;BME280;66746;51.328;12.332;2023-07-24T09:34:26;99228.34;;;25.90;41.31
77590;BME280;66746;51.328;12.332;2023-07-24T09:36:53;99226.94;;;25.94;41.16
77590;BME280;66746;51.328;12.332;2023-07-24T09:39:23;99233.09;;;26.12;41.43
77590;BME280;66746;51.328;12.332;2023-07-24T09:41:49;99230.31;;;26.12;41.52
77590;BME280;66746;51.328;12.332;2023-07-24T09:44:17;99232.44;;;26.10;40.73
77590;BME280;66746;51.328;12.332;2023-07-24T09:46:44;99222.75;;;26.06;41.78
77590;BME280;66746;51.328;12.332;2023-07-24T09:49:26;99219.75;;;26.30;41.09
77590;BME280;66746;51.328;12.332;2023-07-24T09:51:57;99212.88;;;26.63;41.04
77590;BME280;66746;51.328;12.332;2023-07-24T09:54:30;99206.41;;;26.48;41.29
77590;BME280;66746;51.328;12.332;2023-07-24T09:56:59;99211.75;;;26.35;40.79
77590;BME280;66746;51.328;12.332;2023-07-24T09:59:48;99213.22;;;26.23;41.11
77590;BME280;66746;51.328;12.332;2023-07-24T10:02:17;99209.03;;;26.27;40.41
77590;BME280;66746;51.328;12.332;2023-07-24T10:04:44;99208.47;;;26.09;40.46
77590;BME280;66746;51.328;12.332;2023-07-24T10:07:13;99192.41;;;25.88;40.85
77590;BME280;66746;51.328;12.332;2023-07-24T10:09:41;99188.56;;;25.89;40.97
77590;BME280;66746;51.328;12.332;2023-07-24T10:12:08;99191.44;;;26.04;41.88
77590;BME280;66746;51.328;12.332;2023-07-24T10:14:36;99183.13;;;26.04;40.88
77590;BME280;66746;51.328;12.332;2023-07-24T10:17:05;99167.88;;;26.22;41.36
77590;BME280;66746;51.328;12.332;2023-07-24T10:19:36;99157.84;;;26.36;41.29
77590;BME280;66746;51.328;12.332;2023-07-24T10:22:02;99167.88;;;26.45;41.45
77590;BME280;66746;51.328;12.332;2023-07-24T10:24:29;99169.78;;;26.22;41.36
77590;BME280;66746;51.328;12.332;2023-07-24T10:27:08;99158.38;;;26.17;42.20
77590;BME280;66746;51.328;12.332;2023-07-24T10:29:35;99154.16;;;26.21;42.29
77590;BME280;66746;51.328;12.332;2023-07-24T10:32:02;99154.03;;;26.37;43.31
77590;BME280;66746;51.328;12.332;2023-07-24T10:34:37;99150.38;;;26.37;42.60
77590;BME280;66746;51.328;12.332;2023-07-24T10:37:06;99139.47;;;26.50;42.66
77590;BME280;66746;51.328;12.332;2023-07-24T10:39:37;99142.59;;;26.69;41.66
77590;BME280;66746;51.328;12.332;2023-07-24T10:42:05;99124.69;;;26.86;42.40
77590;BME280;66746;51.328;12.332;2023-07-24T10:44:32;99136.91;;;26.85;41.52
77590;BME280;66746;51.328;12.332;2023-07-24T10:46:59;99114.81;;;26.98;41.32
77590;BME280;66746;51.328;12.332;2023-07-24T10:49:25;99124.22;;;26.83;42.46
77590;BME280;66746;51.328;12.332;2023-07-24T10:51:56;99125.47;;;26.95;41.69
77590;BME280;66746;51.328;12.332;2023-07-24T10:54:22;99115.97;;;26.89;40.97
77590;BME280;66746;51.328;12.332;2023-07-24T10:56:49;99108.78;;;26.80;41.86
77590;BME280;66746;51.328;12.332;2023-07-24T10:59:17;99101.56;;;26.71;42.48
77590;BME280;66746;51.328;12.332;2023-07-24T11:01:46;99100.06;;;26.83;41.65
77590;BME280;66746;51.328;12.332;2023-07-24T11:04:13;99099.88;;;26.70;42.42
77590;BME280;66746;51.328;12.332;2023-07-24T11:06:40;99097.13;;;26.62;43.42
77590;BME280;66746;51.328;12.332;2023-07-24T11:09:08;99100.47;;;26.58;43.02
77590;BME280;66746;51.328;12.332;2023-07-24T11:11:35;99102.56;;;26.56;42.47
77590;BME280;66746;51.328;12.332;2023-07-24T11:14:03;99089.22;;;26.51;42.43
77590;BME280;66746;51.328;12.332;2023-07-24T11:16:31;99104.81;;;26.60;42.73
77590;BME280;66746;51.328;12.332;2023-07-24T11:19:01;99089.47;;;26.64;43.28
77590;BME280;66746;51.328;12.332;2023-07-24T11:21:40;99086.00;;;26.62;42.63
77590;BME280;66746;51.328;12.332;2023-07-24T11:24:08;99109.59;;;26.66;42.32
77590;BME280;66746;51.328;12.332;2023-07-24T11:26:35;99108.22;;;26.70;42.39
77590;BME280;66746;51.328;12.332;2023-07-24T11:29:11;99101.34;;;26.58;43.16
77590;BME280;66746;51.328;12.332;2023-07-24T11:31:38;99102.47;;;26.49;42.12
77590;BME280;66746;51.328;12.332;2023-07-24T11:34:05;99096.25;;;26.62;43.53
77590;BME280;66746;51.328;12.332;2023-07-24T11:36:32;99086.28;;;26.67;42.77
77590;BME280;66746;51.328;12.332;2023-07-24T11:38:59;99087.38;;;26.81;42.71
77590;BME280;66746;51.328;12.332;2023-07-24T11:41:27;99083.81;;;26.87;42.86
77590;BME280;66746;51.328;12.332;2023-07-24T11:43:54;99073.75;;;27.00;41.69
77590;BME280;66746;51.328;12.332;2023-07-24T11:46:25;99075.94;;;26.90;41.24
77590;BME280;66746;51.328;12.332;2023-07-24T11:48:52;99071.56;;;26.96;41.72
77590;BME280;66746;51.328;12.332;2023-07-24T11:51:19;99070.78;;;27.02;41.27
77590;BME280;66746;51.328;12.332;2023-07-24T11:53:46;99067.03;;;27.09;40.96
77590;BME280;66746;51.328;12.332;2023-07-24T11:56:13;99063.28;;;27.17;41.62
77590;BME280;66746;51.328;12.332;2023-07-24T11:58:42;99056.47;;;27.20;41.41
77590;BME280;66746;51.328;12.332;2023-07-24T12:01:08;99061.72;;;27.29;40.83
77590;BME280;66746;51.328;12.332;2023-07-24T12:03:35;99060.66;;;27.45;41.54
77590;BME280;66746;51.328;12.332;2023-07-24T12:06:02;99059.09;;;27.57;39.46
77590;BME280;66746;51.328;12.332;2023-07-24T12:08:30;99052.44;;;27.58;40.10
77590;BME280;66746;51.328;12.332;2023-07-24T12:10:57;99045.63;;;27.60;39.56
77590;BME280;66746;51.328;12.332;2023-07-24T12:13:24;99044.50;;;27.76;40.22
77590;BME280;66746;51.328;12.332;2023-07-24T12:15:52;99041.38;;;27.85;40.19
77590;BME280;66746;51.328;12.332;2023-07-24T12:18:18;99021.81;;;28.00;40.31
77590;BME280;66746;51.328;12.332;2023-07-24T12:20:45;99000.84;;;28.04;40.15
77590;BME280;66746;51.328;12.332;2023-07-24T12:23:12;99020.88;;;27.93;39.54
77590;BME280;66746;51.328;12.332;2023-07-24T12:25:38;99013.19;;;27.95;39.16
77590;BME280;66746;51.328;12.332;2023-07-24T12:28:05;98997.09;;;28.18;39.57
77590;BME280;66746;51.328;12.332;2023-07-24T12:30:31;99017.28;;;28.20;36.81
77590;BME280;66746;51.328;12.332;2023-07-24T12:32:59;99016.16;;;28.42;36.95
77590;BME280;66746;51.328;12.332;2023-07-24T12:35:26;99010.44;;;28.50;37.54
77590;BME280;66746;51.328;12.332;2023-07-24T12:37:52;99009.78;;;28.48;37.12
77590;BME280;66746;51.328;12.332;2023-07-24T12:40:19;99008.84;;;28.62;37.00
77590;BME280;66746;51.328;12.332;2023-07-24T12:42:45;99010.38;;;28.16;36.63
77590;BME280;66746;51.328;12.332;2023-07-24T12:45:12;99010.59;;;27.93;36.22
77590;BME280;66746;51.328;12.332;2023-07-24T12:47:39;98991.94;;;27.73;37.96
77590;BME280;66746;51.328;12.332;2023-07-24T12:50:07;98991.56;;;27.55;38.58
77590;BME280;66746;51.328;12.332;2023-07-24T12:52:34;98984.50;;;27.59;37.98
77590;BME280;66746;51.328;12.332;2023-07-24T12:55:01;98972.06;;;27.55;39.47
77590;BME280;66746;51.328;12.332;2023-07-24T12:57:28;98975.69;;;27.55;39.95
77590;BME280;66746;51.328;12.332;2023-07-24T12:59:55;98978.28;;;27.36;39.42
77590;BME280;66746;51.328;12.332;2023-07-24T13:02:21;98953.75;;;27.10;40.14